Time;durP1;ratioP1;P1;durP2;ratioP2;P2;SDS_P1;SDS_P2;PMS_P1;PMS_P2;Temp;Humidity;BMP_temperature;BMP_pressure;BME280_temperature;BME280_humidity;BME280_pressure;Samples;Min_cycle;Max_cycle;Signal;HPM_P1;HPM_P2
2021/06/20 00:03:40;;;;;;;10.77;9.87;;;27.20;28.60;;;;;;10353509;28;20225;-75
2021/06/20 00:08:45;;;;;;;11.00;10.03;;;27.10;28.80;;;;;;10359921;28;20238;-74
2021/06/20 00:13:48;;;;;;;10.37;9.50;;;27.10;29.80;;;;;;10365364;28;20737;-74
2021/06/20 00:18:51;;;;;;;10.30;9.50;;;27.10;29.10;;;;;;10349812;28;20592;-73
2021/06/20 00:23:56;;;;;;;9.63;8.93;;;27.10;29.30;;;;;;10366120;28;20241;-74
2021/06/20 00:28:59;;;;;;;9.40;8.63;;;27.00;29.70;;;;;;10358989;28;20234;-75
2021/06/20 00:34:03;;;;;;;9.97;9.07;;;26.90;29.30;;;;;;10372412;28;20593;-73
2021/06/20 00:39:07;;;;;;;9.23;8.50;;;26.90;29.60;;;;;;10359343;28;20234;-75
2021/06/20 00:44:10;;;;;;;9.73;8.93;;;26.90;29.70;;;;;;10364128;28;20246;-75
2021/06/20 00:49:13;;;;;;;10.40;9.30;;;26.80;29.60;;;;;;10358120;28;20257;-75
2021/06/20 00:54:18;;;;;;;10.60;9.50;;;26.80;29.60;;;;;;10364946;28;20230;-75
2021/06/20 00:59:21;;;;;;;9.63;8.73;;;26.70;29.60;;;;;;10361869;28;20244;-75
2021/06/20 01:04:25;;;;;;;9.97;9.27;;;26.70;29.60;;;;;;10385929;23;20316;-78
2021/06/20 01:09:29;;;;;;;9.00;8.37;;;26.70;29.60;;;;;;10385481;28;20237;-78
2021/06/20 01:14:34;;;;;;;9.90;8.90;;;26.60;29.50;;;;;;10400754;28;20256;-78
2021/06/20 01:19:39;;;;;;;8.87;8.20;;;26.60;29.80;;;;;;10392177;28;20233;-79
2021/06/20 01:24:44;;;;;;;9.67;8.87;;;26.50;29.50;;;;;;10388878;28;20277;-78
2021/06/20 01:29:48;;;;;;;10.30;9.37;;;26.50;30.10;;;;;;10393841;28;20232;-78
2021/06/20 01:34:52;;;;;;;10.47;9.67;;;26.40;29.90;;;;;;10411634;28;20596;-79
2021/06/20 01:39:57;;;;;;;9.50;8.80;;;26.30;30.00;;;;;;10394906;28;20572;-78
2021/06/20 01:45:01;;;;;;;9.73;8.93;;;26.20;30.30;;;;;;10391210;28;20225;-78
2021/06/20 01:50:10;;;;;;;10.00;9.00;;;26.10;30.30;;;;;;10400271;28;20218;-78
2021/06/20 01:55:16;;;;;;;10.03;9.03;;;26.00;31.30;;;;;;10393015;28;20265;-76
2021/06/20 02:00:20;;;;;;;10.73;9.63;;;25.90;31.40;;;;;;10383515;28;20234;-77
2021/06/20 02:05:27;;;;;;;10.73;9.83;;;25.90;30.80;;;;;;10382073;28;20230;-77
2021/06/20 02:10:31;;;;;;;11.27;10.27;;;25.80;31.60;;;;;;10386111;28;20741;-76
2021/06/20 02:15:35;;;;;;;10.47;9.57;;;25.70;31.80;;;;;;10377920;28;20237;-76
2021/06/20 02:20:39;;;;;;;10.00;9.10;;;25.70;31.20;;;;;;10381932;28;20226;-76
2021/06/20 02:25:44;;;;;;;11.00;10.20;;;25.70;31.40;;;;;;10378681;28;20230;-76
2021/06/20 02:30:47;;;;;;;10.13;9.33;;;25.60;32.00;;;;;;10383563;28;20230;-76
2021/06/20 02:35:51;;;;;;;10.20;9.30;;;25.60;31.40;;;;;;10377730;28;20238;-76
2021/06/20 02:40:55;;;;;;;11.13;10.03;;;25.50;31.70;;;;;;10383014;28;20256;-76
2021/06/20 02:45:58;;;;;;;10.03;9.23;;;25.50;32.30;;;;;;10383525;28;20241;-76
2021/06/20 02:51:01;;;;;;;9.97;9.00;;;25.40;31.50;;;;;;10381779;28;20226;-77
2021/06/20 02:56:06;;;;;;;11.13;9.93;;;25.30;31.80;;;;;;10379328;28;20732;-76
2021/06/20 03:01:09;;;;;;;11.37;10.27;;;25.30;32.70;;;;;;10380678;28;20236;-77
2021/06/20 03:06:13;;;;;;;10.30;9.50;;;25.30;32.20;;;;;;10377570;28;20249;-76
2021/06/20 03:11:19;;;;;;;9.67;8.93;;;25.20;32.00;;;;;;10378728;28;20226;-76
2021/06/20 03:16:22;;;;;;;9.30;8.60;;;25.20;32.50;;;;;;10379409;28;20238;-76
2021/06/20 03:21:25;;;;;;;10.40;9.37;;;25.10;32.20;;;;;;10378808;28;20226;-76
2021/06/20 03:26:30;;;;;;;10.27;9.37;;;25.10;32.40;;;;;;10376752;28;20237;-77
2021/06/20 03:31:34;;;;;;;10.27;9.43;;;25.10;33.10;;;;;;10374265;28;20238;-76
2021/06/20 03:36:37;;;;;;;10.60;9.70;;;25.00;32.70;;;;;;10378743;28;20653;-76
2021/06/20 03:41:41;;;;;;;10.20;9.37;;;24.90;32.70;;;;;;10375639;28;20234;-77
2021/06/20 03:46:45;;;;;;;11.07;10.00;;;24.90;33.10;;;;;;10381314;28;20242;-76
2021/06/20 03:51:48;;;;;;;10.17;9.47;;;24.90;33.00;;;;;;10378503;28;20311;-77
2021/06/20 03:56:53;;;;;;;9.57;8.77;;;24.80;32.80;;;;;;10381097;28;20227;-76
2021/06/20 04:01:56;;;;;;;11.67;10.70;;;24.80;33.40;;;;;;10381613;28;20221;-76
2021/06/20 04:07:00;;;;;;;12.13;11.03;;;24.70;33.20;;;;;;10379766;28;20236;-76
2021/06/20 04:12:05;;;;;;;10.60;9.70;;;24.70;33.40;;;;;;10376449;28;20237;-76
2021/06/20 04:17:08;;;;;;;11.13;10.13;;;24.60;33.90;;;;;;10382607;28;20244;-76
2021/06/20 04:22:13;;;;;;;11.30;10.23;;;24.60;33.90;;;;;;10374733;28;20265;-76
2021/06/20 04:27:17;;;;;;;10.80;9.80;;;24.50;34.00;;;;;;10378057;28;20236;-77
2021/06/20 04:32:21;;;;;;;12.17;11.17;;;24.50;34.80;;;;;;10378272;28;20730;-75
2021/06/20 04:37:24;;;;;;;11.17;10.17;;;24.50;34.90;;;;;;10376006;28;20778;-76
2021/06/20 04:42:32;;;;;;;12.33;10.87;;;24.50;34.80;;;;;;10381380;28;20643;-76
2021/06/20 04:47:36;;;;;;;10.93;9.93;;;24.50;35.70;;;;;;10374156;28;20595;-76
2021/06/20 04:52:43;;;;;;;10.43;9.73;;;24.50;35.20;;;;;;10383893;28;20242;-76
2021/06/20 04:57:47;;;;;;;10.40;9.67;;;24.60;36.40;;;;;;10380039;28;20234;-76
2021/06/20 05:02:50;;;;;;;12.33;11.47;;;24.60;35.70;;;;;;10374618;28;20245;-76
2021/06/20 05:07:53;;;;;;;14.83;12.43;;;24.70;35.50;;;;;;10377801;28;20240;-76
2021/06/20 05:12:58;;;;;;;13.73;12.70;;;24.80;35.70;;;;;;10386201;28;20225;-76
2021/06/20 05:18:01;;;;;;;13.77;12.77;;;24.90;36.70;;;;;;10378919;28;20765;-76
2021/06/20 05:23:05;;;;;;;14.03;12.93;;;25.00;36.00;;;;;;10387577;28;20222;-76
2021/06/20 05:28:09;;;;;;;13.33;12.20;;;25.10;35.90;;;;;;10382145;28;20236;-76
2021/06/20 05:33:13;;;;;;;13.10;12.10;;;25.20;36.30;;;;;;10384411;28;20229;-76
2021/06/20 05:38:17;;;;;;;14.20;13.03;;;25.40;36.10;;;;;;10380091;28;20254;-76
2021/06/20 05:43:21;;;;;;;13.67;12.63;;;25.60;36.60;;;;;;10383875;28;20265;-76
2021/06/20 05:48:25;;;;;;;14.07;12.97;;;25.70;36.60;;;;;;10382215;28;20253;-76
2021/06/20 05:53:28;;;;;;;13.03;12.03;;;25.90;36.50;;;;;;10383985;28;20238;-76
2021/06/20 05:58:32;;;;;;;13.33;12.10;;;26.00;36.60;;;;;;10390448;28;20229;-76
2021/06/20 06:03:36;;;;;;;13.37;12.23;;;26.20;36.80;;;;;;10384544;28;20248;-76
2021/06/20 06:08:39;;;;;;;12.50;11.53;;;26.30;36.00;;;;;;10383834;28;20229;-76
2021/06/20 06:13:43;;;;;;;12.40;11.50;;;26.50;36.20;;;;;;10382651;28;20238;-76
2021/06/20 06:18:46;;;;;;;11.77;10.97;;;26.60;36.00;;;;;;10381359;28;20234;-76
2021/06/20 06:23:50;;;;;;;12.30;11.40;;;26.70;35.60;;;;;;10379868;28;20281;-76
2021/06/20 06:28:55;;;;;;;13.73;12.67;;;26.80;35.40;;;;;;10382437;28;20234;-76
2021/06/20 06:33:58;;;;;;;13.70;12.60;;;26.80;35.60;;;;;;10381979;28;20242;-76
2021/06/20 06:39:01;;;;;;;13.27;12.27;;;26.80;35.30;;;;;;10380920;28;20230;-76
2021/06/20 06:44:06;;;;;;;13.47;12.37;;;26.80;35.40;;;;;;10385948;28;20633;-77
2021/06/20 06:49:09;;;;;;;12.37;11.53;;;26.80;35.80;;;;;;10382774;28;20221;-76
2021/06/20 06:54:12;;;;;;;14.17;12.77;;;26.70;35.60;;;;;;10382401;28;20232;-77
2021/06/20 06:59:17;;;;;;;13.17;12.17;;;26.70;35.40;;;;;;10382685;28;20726;-77
2021/06/20 07:04:20;;;;;;;11.97;10.73;;;26.70;35.70;;;;;;10381681;28;20257;-76
2021/06/20 07:09:24;;;;;;;12.40;11.40;;;26.70;35.50;;;;;;10384072;28;20230;-77
2021/06/20 07:14:29;;;;;;;12.47;11.27;;;26.70;35.50;;;;;;10386043;28;20688;-74
2021/06/20 07:19:34;;;;;;;11.17;10.03;;;26.70;35.70;;;;;;10380631;28;20241;-74
2021/06/20 07:24:37;;;;;;;12.27;9.67;;;26.80;35.40;;;;;;10378009;28;20225;-75
2021/06/20 07:29:43;;;;;;;10.10;8.37;;;26.70;35.60;;;;;;10379161;28;20233;-75
2021/06/20 07:34:46;;;;;;;11.10;8.53;;;26.70;35.50;;;;;;10379700;28;20230;-74
2021/06/20 07:39:52;;;;;;;10.43;8.00;;;26.80;35.30;;;;;;10380748;28;20230;-75
2021/06/20 07:44:56;;;;;;;11.30;7.67;;;26.80;35.10;;;;;;10382464;28;20597;-75
2021/06/20 07:50:00;;;;;;;9.33;7.60;;;26.80;35.20;;;;;;10377536;28;21164;-75
2021/06/20 07:55:05;;;;;;;9.53;6.83;;;26.80;35.10;;;;;;10376905;28;20711;-75
2021/06/20 08:00:11;;;;;;;12.00;7.70;;;26.90;35.20;;;;;;10381667;28;20238;-75
2021/06/20 08:05:16;;;;;;;11.23;6.53;;;26.90;35.30;;;;;;10381912;28;20245;-75
2021/06/20 08:10:20;;;;;;;10.70;6.00;;;27.00;34.90;;;;;;10381527;28;20229;-75
2021/06/20 08:15:25;;;;;;;13.57;6.50;;;27.00;34.70;;;;;;10386130;28;20252;-74
2021/06/20 08:20:28;;;;;;;10.63;6.00;;;27.00;34.70;;;;;;10383908;28;20714;-78
2021/06/20 08:25:32;;;;;;;10.70;5.90;;;27.00;34.50;;;;;;10380843;28;20702;-73
2021/06/20 08:30:36;;;;;;;9.37;5.43;;;27.00;34.50;;;;;;10381583;28;20588;-75
2021/06/20 08:35:39;;;;;;;10.57;5.60;;;27.10;34.40;;;;;;10377217;28;20265;-74
2021/06/20 08:40:43;;;;;;;12.83;5.10;;;27.10;34.10;;;;;;10380344;28;20242;-75
2021/06/20 08:45:51;;;;;;;9.83;4.47;;;27.10;34.30;;;;;;10388198;28;20963;-75
2021/06/20 08:50:54;;;;;;;11.27;4.53;;;27.10;34.70;;;;;;10388303;28;20324;-75
2021/06/20 08:55:58;;;;;;;8.83;3.90;;;27.10;34.00;;;;;;10387864;28;20245;-75
2021/06/20 09:01:05;;;;;;;11.63;4.13;;;27.20;34.00;;;;;;10396180;28;20230;-80
2021/06/20 09:06:16;;;;;;;10.07;4.10;;;27.30;34.10;;;;;;10400103;28;20240;-82
2021/06/20 09:11:24;;;;;;;12.93;4.60;;;27.40;33.90;;;;;;10391294;28;20232;-82
2021/06/20 09:16:29;;;;;;;13.10;4.20;;;27.50;33.70;;;;;;10401510;28;20230;-83
2021/06/20 09:21:33;;;;;;;10.03;4.17;;;27.60;34.00;;;;;;10396470;28;20234;-85
2021/06/20 09:26:38;;;;;;;8.40;4.13;;;27.70;33.70;;;;;;10391956;28;20248;-81
2021/06/20 09:31:53;;;;;;;10.33;4.70;;;28.00;33.10;;;;;;10386303;28;20753;-77
2021/06/20 09:37:04;;;;;;;9.20;4.47;;;28.20;32.60;;;;;;10402070;28;20237;-78
2021/06/20 09:42:09;;;;;;;7.97;4.20;;;28.40;33.20;;;;;;10386834;28;20230;-78
2021/06/20 09:47:16;;;;;;;8.20;4.63;;;28.70;33.20;;;;;;10392419;28;20234;-77
2021/06/20 09:52:27;;;;;;;12.30;4.70;;;28.90;31.90;;;;;;10404487;28;20227;-77
2021/06/20 09:57:40;;;;;;;12.70;4.40;;;29.10;31.00;;;;;;10390355;28;20237;-77
2021/06/20 10:02:46;;;;;;;13.73;4.80;;;29.30;31.70;;;;;;10392251;28;20238;-77
2021/06/20 10:07:50;;;;;;;10.30;4.10;;;29.60;31.30;;;;;;10400534;28;20321;-78
2021/06/20 10:12:53;;;;;;;11.33;5.03;;;29.80;31.40;;;;;;10388294;28;20717;-78
2021/06/20 10:18:05;;;;;;;10.57;3.73;;;30.10;31.00;;;;;;10385936;28;20309;-78
2021/06/20 10:23:18;;;;;;;13.13;4.63;;;30.20;30.30;;;;;;10396366;28;20653;-78
2021/06/20 10:28:23;;;;;;;12.07;4.53;;;30.40;30.00;;;;;;10402111;28;20645;-77
2021/06/20 10:33:28;;;;;;;11.77;4.60;;;30.50;29.90;;;;;;10401654;28;20710;-78
2021/06/20 10:38:34;;;;;;;11.80;4.30;;;30.70;28.80;;;;;;10397157;28;20229;-78
2021/06/20 10:43:38;;;;;;;14.20;4.13;;;30.70;28.50;;;;;;10407587;28;20236;-78
2021/06/20 10:48:42;;;;;;;13.90;4.20;;;30.70;28.70;;;;;;10391448;28;20323;-74
2021/06/20 10:53:46;;;;;;;14.17;4.40;;;30.80;27.80;;;;;;10385910;28;20239;-77
2021/06/20 10:58:51;;;;;;;11.53;4.30;;;30.80;28.20;;;;;;10382248;28;20232;-78
2021/06/20 11:04:02;;;;;;;10.67;4.13;;;30.80;27.80;;;;;;10386321;28;20245;-78
2021/06/20 11:09:07;;;;;;;11.93;4.10;;;30.80;28.10;;;;;;10386147;28;20218;-78
2021/06/20 11:14:11;;;;;;;11.87;4.40;;;30.80;28.00;;;;;;10389822;28;20229;-78
2021/06/20 11:19:18;;;;;;;11.70;4.13;;;30.80;27.80;;;;;;10398876;28;20308;-81
2021/06/20 11:24:24;;;;;;;10.20;3.90;;;30.80;27.30;;;;;;10395698;28;20245;-75
2021/06/20 11:29:37;;;;;;;11.70;3.70;;;31.00;27.60;;;;;;10387934;28;20577;-77
2021/06/20 11:34:46;;;;;;;10.10;4.37;;;31.10;27.50;;;;;;10383085;28;20242;-75
2021/06/20 11:39:49;;;;;;;12.03;4.10;;;31.20;26.80;;;;;;10385727;28;20225;-75
2021/06/20 11:44:55;;;;;;;11.30;4.30;;;31.30;27.00;;;;;;10389026;28;20241;-74
2021/06/20 11:50:12;;;;;;;12.00;4.53;;;31.30;26.80;;;;;;10379194;28;20583;-75
2021/06/20 11:55:17;;;;;;;11.87;4.10;;;31.30;26.60;;;;;;10386724;28;20233;-72
2021/06/20 12:00:23;;;;;;;14.90;5.00;;;31.30;26.50;;;;;;10379819;28;20225;-74
2021/06/20 12:05:28;;;;;;;9.07;3.93;;;31.30;26.50;;;;;;10383581;28;20245;-75
2021/06/20 12:10:34;;;;;;;12.17;4.13;;;31.30;26.50;;;;;;10375334;28;20597;-73
2021/06/20 12:15:39;;;;;;;8.77;4.30;;;31.30;26.50;;;;;;10385583;28;20238;-73
2021/06/20 12:20:46;;;;;;;13.67;4.20;;;31.40;26.50;;;;;;10390331;28;20253;-74
2021/06/20 12:25:52;;;;;;;10.73;4.50;;;31.50;26.50;;;;;;10387591;28;20249;-73
2021/06/20 12:30:56;;;;;;;9.43;4.30;;;31.60;26.80;;;;;;10389952;28;20266;-73
2021/06/20 12:36:04;;;;;;;10.17;3.97;;;31.70;26.80;;;;;;10387765;28;20246;-74
2021/06/20 12:41:17;;;;;;;8.73;3.60;;;31.80;26.40;;;;;;10383754;28;20227;-74
2021/06/20 12:46:21;;;;;;;12.07;4.27;;;31.80;26.00;;;;;;10385590;28;20320;-75
2021/06/20 12:51:41;;;;;;;14.40;4.80;;;31.90;26.50;;;;;;10385369;28;20241;-76
2021/06/20 12:56:47;;;;;;;9.27;4.23;;;32.00;26.20;;;;;;10386504;28;20434;-76
2021/06/20 13:01:54;;;;;;;9.83;4.63;;;32.00;26.40;;;;;;10383137;28;20226;-75
2021/06/20 13:06:58;;;;;;;11.07;4.30;;;32.00;26.20;;;;;;10376088;28;20333;-76
2021/06/20 13:12:02;;;;;;;11.97;4.53;;;32.10;25.80;;;;;;10386173;28;20253;-75
2021/06/20 13:17:05;;;;;;;10.00;4.47;;;32.10;25.80;;;;;;10388943;28;20233;-76
2021/06/20 13:22:09;;;;;;;9.70;4.53;;;32.10;25.90;;;;;;10393613;28;20252;-76
2021/06/20 13:27:13;;;;;;;10.80;4.60;;;32.20;25.70;;;;;;10381506;28;21229;-76
2021/06/20 13:32:16;;;;;;;11.23;4.57;;;32.20;25.70;;;;;;10395795;28;20268;-78
2021/06/20 13:37:22;;;;;;;9.50;4.13;;;32.30;25.70;;;;;;10406257;28;20774;-81
2021/06/20 13:42:25;;;;;;;9.60;4.20;;;32.40;25.40;;;;;;10402196;28;20636;-81
2021/06/20 13:47:28;;;;;;;11.90;5.10;;;32.40;25.50;;;;;;10393511;28;20252;-81
2021/06/20 13:52:34;;;;;;;10.70;4.63;;;32.50;25.50;;;;;;10398093;28;20262;-81
2021/06/20 13:57:38;;;;;;;8.23;4.60;;;32.50;25.10;;;;;;10402018;28;20596;-79
2021/06/20 14:02:41;;;;;;;12.17;4.83;;;32.50;25.00;;;;;;10385753;28;20611;-78
2021/06/20 14:07:47;;;;;;;12.27;4.53;;;32.60;25.40;;;;;;10391192;28;20242;-78
2021/06/20 14:12:51;;;;;;;14.90;4.67;;;32.60;25.00;;;;;;10387296;28;20226;-75
2021/06/20 14:17:54;;;;;;;11.70;5.00;;;32.70;25.20;;;;;;10389832;28;20273;-81
2021/06/20 14:22:59;;;;;;;13.07;4.93;;;32.60;25.00;;;;;;10400369;28;20230;-81
2021/06/20 14:28:02;;;;;;;12.87;5.03;;;32.60;25.10;;;;;;10392175;28;20242;-80
2021/06/20 14:33:07;;;;;;;7.90;4.23;;;32.60;25.10;;;;;;10396782;28;20611;-81
2021/06/20 14:38:12;;;;;;;12.67;4.87;;;32.60;25.20;;;;;;10397077;28;20252;-81
2021/06/20 14:43:16;;;;;;;8.73;4.40;;;32.70;25.00;;;;;;10406140;28;20580;-82
2021/06/20 14:48:19;;;;;;;9.13;4.43;;;32.80;25.30;;;;;;10396597;28;20232;-77
2021/06/20 14:53:24;;;;;;;8.20;4.30;;;32.80;25.20;;;;;;10386008;28;20238;-81
2021/06/20 14:58:28;;;;;;;12.23;4.60;;;32.90;24.80;;;;;;10399122;28;20239;-77
2021/06/20 15:03:31;;;;;;;11.87;4.60;;;32.90;24.70;;;;;;10393550;28;20329;-77
2021/06/20 15:08:36;;;;;;;14.23;4.83;;;32.80;24.70;;;;;;10381592;28;20968;-78
2021/06/20 15:13:39;;;;;;;10.93;4.67;;;32.90;24.50;;;;;;10386970;28;20237;-75
2021/06/20 15:18:43;;;;;;;6.47;4.43;;;32.90;24.70;;;;;;10375908;28;20358;-84
2021/06/20 15:23:48;;;;;;;10.73;4.70;;;33.00;24.50;;;;;;10365526;28;20286;-75
2021/06/20 15:28:56;;;;;;;9.97;4.23;;;33.00;24.40;;;;;;10383658;28;20341;-71
2021/06/20 15:34:01;;;;;;;12.40;4.30;;;33.00;24.40;;;;;;10373081;28;20611;-76
2021/06/20 15:39:06;;;;;;;17.17;5.00;;;33.10;24.50;;;;;;10384722;28;20296;-77
2021/06/20 15:44:09;;;;;;;10.83;4.13;;;33.10;24.20;;;;;;10387485;28;20918;-77
2021/06/20 15:49:13;;;;;;;10.37;4.10;;;33.10;25.00;;;;;;10357709;28;20322;-76
2021/06/20 15:54:19;;;;;;;13.40;4.57;;;33.30;24.20;;;;;;10373278;28;20237;-77
2021/06/20 15:59:22;;;;;;;11.80;4.67;;;33.20;23.80;;;;;;10384736;28;20256;-74
2021/06/20 16:04:26;;;;;;;12.07;4.53;;;33.10;23.80;;;;;;10382678;28;20242;-77
2021/06/20 16:09:38;;;;;;;13.30;4.83;;;33.20;24.00;;;;;;10382867;28;20595;-76
2021/06/20 16:14:44;;;;;;;9.50;4.60;;;33.10;23.80;;;;;;10381865;28;20648;-79
2021/06/20 16:19:53;;;;;;;10.60;4.90;;;33.10;23.90;;;;;;10374224;28;20230;-77
2021/06/20 16:25:17;;;;;;;14.73;4.47;;;33.10;23.80;;;;;;10346735;28;20237;-77
2021/06/20 16:30:23;;;;;;;17.83;11.23;;;33.10;23.90;;;;;;10380732;28;20602;-74
2021/06/20 16:35:27;;;;;;;13.63;6.87;;;33.10;23.90;;;;;;10366546;28;20234;-76
2021/06/20 16:40:32;;;;;;;11.23;5.50;;;33.10;23.80;;;;;;10369102;28;20589;-74
2021/06/20 16:45:36;;;;;;;10.47;4.50;;;33.20;23.30;;;;;;10376678;28;20507;-81
2021/06/20 16:50:39;;;;;;;10.60;4.60;;;33.20;23.60;;;;;;10372122;28;20226;-77
2021/06/20 16:55:44;;;;;;;14.97;4.90;;;33.20;23.40;;;;;;10370219;28;20240;-82
2021/06/20 17:00:47;;;;;;;11.70;4.40;;;33.10;23.10;;;;;;10382210;28;20318;-82
2021/06/20 17:05:50;;;;;;;8.93;4.23;;;33.10;23.20;;;;;;10402773;28;20602;-82
2021/06/20 17:10:55;;;;;;;9.27;4.17;;;33.10;23.10;;;;;;10409131;28;20245;-82
2021/06/20 17:15:59;;;;;;;14.33;4.67;;;33.00;22.70;;;;;;10362263;28;21288;-82
2021/06/20 17:21:02;;;;;;;9.30;4.67;;;33.00;23.30;;;;;;10384378;28;20234;-81
2021/06/20 17:26:07;;;;;;;12.13;5.53;;;33.00;23.30;;;;;;10393317;28;20249;-76
2021/06/20 17:31:10;;;;;;;17.87;7.27;;;32.80;23.30;;;;;;10390994;28;20222;-74
2021/06/20 17:36:14;;;;;;;10.37;5.83;;;32.90;23.50;;;;;;10378256;28;20573;-75
2021/06/20 17:41:19;;;;;;;12.87;5.30;;;32.80;23.50;;;;;;10390740;28;20229;-77
2021/06/20 17:46:23;;;;;;;9.83;4.43;;;32.70;23.40;;;;;;10379701;28;20639;-77
2021/06/20 17:51:26;;;;;;;9.83;4.87;;;32.60;23.60;;;;;;10385590;28;20249;-77
2021/06/20 17:56:31;;;;;;;11.20;4.30;;;32.60;23.70;;;;;;10383191;28;20232;-77
2021/06/20 18:01:35;;;;;;;13.83;4.57;;;32.50;23.70;;;;;;10389867;28;20230;-82
2021/06/20 18:06:38;;;;;;;12.93;4.80;;;32.50;23.90;;;;;;10390436;28;20324;-82
2021/06/20 18:11:43;;;;;;;11.97;4.83;;;32.40;24.00;;;;;;10381715;28;20232;-76
2021/06/20 18:16:46;;;;;;;11.10;4.57;;;32.40;24.10;;;;;;10390290;28;20229;-82
2021/06/20 18:21:52;;;;;;;14.17;4.10;;;32.30;24.20;;;;;;10388328;28;20227;-82
2021/06/20 18:26:56;;;;;;;10.57;4.37;;;32.20;24.20;;;;;;10397198;28;20236;-82
2021/06/20 18:32:00;;;;;;;12.20;4.60;;;32.20;24.40;;;;;;10389725;28;20223;-76
2021/06/20 18:37:03;;;;;;;8.10;4.53;;;32.10;24.50;;;;;;10379765;28;20584;-82
2021/06/20 18:42:09;;;;;;;8.73;3.90;;;32.10;24.70;;;;;;10403493;28;20234;-74
2021/06/20 18:47:12;;;;;;;10.90;4.30;;;32.00;24.80;;;;;;10376727;28;20237;-77
2021/06/20 18:52:15;;;;;;;15.60;4.60;;;31.90;24.80;;;;;;10381637;28;20232;-75
2021/06/20 18:57:20;;;;;;;10.23;4.37;;;31.80;24.90;;;;;;10378284;28;20241;-75
2021/06/20 19:02:23;;;;;;;16.77;4.63;;;31.80;25.10;;;;;;10374134;28;20858;-75
2021/06/20 19:07:26;;;;;;;10.23;4.70;;;31.70;25.20;;;;;;10379047;28;20233;-76
2021/06/20 19:12:31;;;;;;;9.47;4.57;;;31.60;25.30;;;;;;10379199;28;20237;-75
2021/06/20 19:17:34;;;;;;;10.90;4.27;;;31.60;25.70;;;;;;10377579;28;20229;-75
2021/06/20 19:22:38;;;;;;;6.83;4.23;;;31.50;25.60;;;;;;10374585;28;20777;-77
2021/06/20 19:27:44;;;;;;;12.17;4.50;;;31.40;25.70;;;;;;10384068;28;20599;-82
2021/06/20 19:32:49;;;;;;;9.70;4.20;;;31.40;25.90;;;;;;10391025;28;20256;-82
2021/06/20 19:37:52;;;;;;;13.50;4.63;;;31.20;25.60;;;;;;10403338;28;20238;-81
2021/06/20 19:42:58;;;;;;;10.43;4.50;;;31.00;25.80;;;;;;10383541;28;20283;-81
2021/06/20 19:48:03;;;;;;;12.20;4.63;;;30.90;26.50;;;;;;10388787;28;20245;-79
2021/06/20 19:53:09;;;;;;;10.57;4.10;;;30.60;26.60;;;;;;10373290;28;20327;-82
2021/06/20 19:58:16;;;;;;;13.97;5.27;;;30.60;27.00;;;;;;10391839;28;20347;-81
2021/06/20 20:03:20;;;;;;;10.30;4.63;;;30.50;27.60;;;;;;10382006;28;20226;-75
2021/06/20 20:08:24;;;;;;;13.27;4.33;;;30.40;27.30;;;;;;10386492;28;20255;-76
2021/06/20 20:13:30;;;;;;;11.67;4.53;;;30.20;27.20;;;;;;10395880;28;20234;-76
2021/06/20 20:18:40;;;;;;;11.20;4.50;;;30.10;27.60;;;;;;10402724;28;20232;-76
2021/06/20 20:23:45;;;;;;;14.63;5.00;;;29.80;27.10;;;;;;10390749;28;20637;-76
2021/06/20 20:28:55;;;;;;;12.80;4.60;;;29.50;27.50;;;;;;10386956;28;20233;-77
2021/06/20 20:33:59;;;;;;;12.67;4.20;;;29.20;28.30;;;;;;10396231;28;20598;-77
2021/06/20 20:39:02;;;;;;;11.37;3.87;;;29.00;27.80;;;;;;10391259;28;20217;-77
2021/06/20 20:44:28;;;;;;;15.10;3.67;;;28.70;27.90;;;;;;10379488;28;20801;-77
2021/06/20 20:49:32;;;;;;;8.73;3.73;;;28.50;29.30;;;;;;10384208;28;20226;-77
2021/06/20 20:54:35;;;;;;;10.63;3.73;;;28.30;28.90;;;;;;10384085;28;20234;-77
2021/06/20 20:59:39;;;;;;;10.83;3.40;;;28.10;29.10;;;;;;10381396;28;20238;-78
2021/06/20 21:04:42;;;;;;;8.30;3.80;;;27.90;29.90;;;;;;10379556;28;20769;-78
2021/06/20 21:09:48;;;;;;;8.33;3.00;;;27.80;29.70;;;;;;10379846;28;20650;-78
2021/06/20 21:14:53;;;;;;;7.33;3.20;;;27.70;30.00;;;;;;10380513;28;20252;-78
2021/06/20 21:19:56;;;;;;;9.60;3.63;;;27.50;30.30;;;;;;10383851;28;20727;-77
2021/06/20 21:24:59;;;;;;;7.37;3.13;;;27.40;29.90;;;;;;10385781;28;20692;-78
2021/06/20 21:30:06;;;;;;;9.27;3.30;;;27.20;29.80;;;;;;10381536;28;20587;-79
2021/06/20 21:35:11;;;;;;;6.90;3.23;;;27.00;31.10;;;;;;10377066;28;20606;-78
2021/06/20 21:40:16;;;;;;;8.23;3.40;;;27.00;31.00;;;;;;10377754;28;20221;-78
2021/06/20 21:45:22;;;;;;;6.23;2.90;;;26.90;31.10;;;;;;10379028;28;20222;-77
2021/06/20 21:50:26;;;;;;;7.47;3.30;;;26.80;31.60;;;;;;10379088;28;20341;-77
2021/06/20 21:55:29;;;;;;;7.80;3.17;;;26.70;30.60;;;;;;10379727;28;20245;-78
2021/06/20 22:00:35;;;;;;;8.77;2.97;;;26.60;30.60;;;;;;10379139;28;20237;-78
2021/06/20 22:05:38;;;;;;;5.80;2.73;;;26.40;31.40;;;;;;10380700;28;20241;-78
2021/06/20 22:10:42;;;;;;;6.10;2.80;;;26.30;31.00;;;;;;10387043;28;20245;-78
2021/06/20 22:15:47;;;;;;;8.17;2.80;;;26.20;31.00;;;;;;10388408;28;20694;-77
2021/06/20 22:20:50;;;;;;;5.10;2.60;;;26.00;31.90;;;;;;10388717;28;20233;-78
2021/06/20 22:25:53;;;;;;;5.60;2.50;;;25.80;31.80;;;;;;10388558;28;20221;-77
2021/06/20 22:30:58;;;;;;;7.93;3.13;;;25.50;32.10;;;;;;10389194;28;20222;-77
2021/06/20 22:36:01;;;;;;;6.73;2.70;;;25.30;33.30;;;;;;10382520;28;20308;-77
2021/06/20 22:41:04;;;;;;;8.40;2.70;;;25.00;33.00;;;;;;10387122;28;20221;-77
2021/06/20 22:46:09;;;;;;;6.10;2.83;;;24.90;33.10;;;;;;10381279;28;20226;-77
2021/06/20 22:51:12;;;;;;;6.60;2.80;;;24.90;34.00;;;;;;10383633;28;20218;-77
2021/06/20 22:56:16;;;;;;;7.10;2.67;;;24.80;34.30;;;;;;10382353;28;20233;-77
2021/06/20 23:01:21;;;;;;;5.50;2.47;;;24.70;33.40;;;;;;10380910;28;20222;-77
2021/06/20 23:06:24;;;;;;;7.20;3.00;;;24.70;34.40;;;;;;10388727;28;20317;-77
2021/06/20 23:11:27;;;;;;;7.33;2.90;;;24.70;33.90;;;;;;10381239;28;20603;-77
2021/06/20 23:16:31;;;;;;;4.67;2.40;;;24.70;34.00;;;;;;10387623;28;20229;-77
2021/06/20 23:21:35;;;;;;;4.67;2.27;;;24.60;34.50;;;;;;10376376;28;20233;-77
2021/06/20 23:26:38;;;;;;;4.13;2.43;;;24.50;34.00;;;;;;10382166;28;20237;-77
2021/06/20 23:31:42;;;;;;;6.30;2.20;;;24.50;34.20;;;;;;10385550;28;20229;-77
2021/06/20 23:36:46;;;;;;;4.43;2.70;;;24.50;34.70;;;;;;10386653;28;20230;-77
2021/06/20 23:41:49;;;;;;;5.40;2.60;;;24.60;34.50;;;;;;10390176;28;20226;-77
2021/06/20 23:46:54;;;;;;;5.73;2.57;;;24.60;34.50;;;;;;10383804;28;20237;-77
2021/06/20 23:51:58;;;;;;;6.30;2.80;;;24.50;35.00;;;;;;10384017;28;20230;-77
2021/06/20 23:57:01;;;;;;;5.27;2.27;;;24.50;34.30;;;;;;10375043;28;20230;-77
